Flight Track Log - Related Links

Times and Time Zones

All times are in EDT time to prevent confusion due to time zone crossing. See the JBU1329 flight status page for this flight to view local times or setup timezone preferences in your user account.

Time Position Orientation Groundspeed Altitude Reporting Facility
EDT Latitude Longitude Course Direction KTS MPH feet Rate Location/Type
Fri 09:11:03 AM 42.3667 -70.9667 262° West 139 160 1,000  Level KA90
Fri 09:13:00 AM 42.3499 -70.7266 172° South  Level FlightAware Approximate
Fri 09:13:15 AM 42.3869 -70.8406 78° East 183 211 5,800  Level Boston Center
Fri 09:14:00 AM 42.2612 -70.7749 228° Southwest  Level FlightAware Approximate
Fri 09:14:15 AM 42.3733 -70.7539 102° East 218 251 8,900  Level Boston Center
Fri 09:15:00 AM 42.1999 -70.8948 240° Southwest  Level FlightAware Approximate
Fri 09:15:15 AM 42.2936 -70.7308 168° South 209 241 11,500  Level Boston Center
Fri 09:16:00 AM 42.1766 -71.0345 262° West  Level FlightAware Approximate
Fri 09:16:15 AM 42.2392 -70.8389 236° Southwest 221 254 13,000  Level Boston Center
Fri 09:17:15 AM 42.2181 -70.9739 258° West 304 350 15,500 2,700 Climbing Boston Center
Fri 09:18:15 AM 42.1969 -71.1203 259° West 373 429 18,400 2,700 Climbing Boston Center
Fri 09:19:15 AM 42.1756 -71.2664 259° West 399 459 20,900 2,800 Climbing Boston Center
Fri 09:20:15 AM 42.1558 -71.4011 259° West 393 452 24,000 2,650 Climbing Boston Center
Fri 09:21:15 AM 42.1342 -71.5303 257° West 378 435 26,200 1,750 Climbing Boston Center
Fri 09:22:15 AM 42.1122 -71.6481 256° West 360 414 27,500 1,300 Climbing Boston Center
Fri 09:23:15 AM 42.0900 -71.7883 258° West 365 420 28,800 1,150 Climbing Boston Center
Fri 09:24:15 AM 42.0658 -71.9339 257° West 385 443 29,800 1,136 Climbing Boston Center
Fri 09:25:27 AM 42.0372 -72.1103 258° West 398 458 31,300 1,000 Climbing Boston Center
Fri 09:26:27 AM 42.0125 -72.2586 257° West 408 470 32,000 350 Climbing Boston Center
Fri 09:27:27 AM 41.9897 -72.4178 259° West 408 470 32,000  Level Boston Center
Fri 09:28:27 AM 42.0064 -72.5714 278° West 408 470 32,000  Level Boston Center
Fri 09:29:27 AM 42.0292 -72.7056 283° West 408 470 32,000  Level Boston Center
Fri 09:30:27 AM 42.0453 -72.8539 278° West 408 470 32,000  Level Boston Center
Fri 09:31:27 AM 41.9925 -73.0100 246° West 396 456 32,000  Level Boston Center
Fri 09:32:27 AM 41.8942 -73.0872 210° Southwest 366 421 32,000  Level Boston Center
Fri 09:33:27 AM 41.8000 -73.1642 211° Southwest 380 437 32,000  Level Boston Center
Fri 09:34:27 AM 41.7078 -73.2408 212° Southwest 393 452 32,000  Level Boston Center
Fri 09:35:27 AM 41.6133 -73.3175 211° Southwest 398 458 32,000  Level Boston Center
Fri 09:36:27 AM 41.5317 -73.3803 210° Southwest 389 448 32,000  Level Boston Center
Fri 09:37:27 AM 41.4350 -73.4589 211° Southwest 394 453 32,000  Level Boston Center
Fri 09:39:20 AM 41.2669 -73.6114 214° Southwest 402 463 32,000  Level New York Center
Fri 09:40:17 AM 41.1953 -73.7325 232° Southwest 402 463 32,000  Level New York Center
Fri 09:41:17 AM 41.1233 -73.8533 232° Southwest 419 482 32,000  Level New York Center
Fri 09:42:18 AM 41.0428 -73.9872 231° Southwest 428 493 32,000  Level New York Center
Fri 09:43:19 AM 40.9728 -74.1103 233° Southwest 428 493 32,000 -650 Level New York Center
Fri 09:44:18 AM 40.8944 -74.2272 228° Southwest 428 493 30,700 -1,850 Descending New York Center
Fri 09:45:19 AM 40.8197 -74.3550 232° Southwest 433 498 28,300 -1,361 Descending New York Center
Fri 09:46:17 AM 40.7431 -74.4769 230° Southwest 439 505 28,000 -407 Descending New York Center
Fri 09:47:17 AM 40.6681 -74.6042 232° Southwest 439 505 27,500 -1,041 Descending New York Center
Fri 09:48:18 AM 40.5911 -74.7256 230° Southwest 434 499 25,900 -1,574 Descending New York Center
Fri 09:49:19 AM 40.5144 -74.8411 229° Southwest 434 499 24,300 -1,613 Descending New York Center
Fri 09:50:17 AM 40.4333 -74.9536 227° Southwest 429 494 22,700 -1,613 Descending New York Center
Fri 09:51:18 AM 40.3564 -75.0633 227° Southwest 424 488 21,100 -1,587 Descending New York Center
Fri 09:52:18 AM 40.2794 -75.1731 227° Southwest 424 488 19,500 -1,041 Descending New York Center
Fri 09:53:19 AM 40.1981 -75.2847 226° Southwest 429 494 19,000 -248 Descending New York Center
Fri 09:54:19 AM 40.1275 -75.3833 227° Southwest 424 488 19,000  Level New York Center
Fri 09:55:19 AM 40.0394 -75.5047 227° Southwest 424 488 19,000  Level New York Center
Fri 09:56:17 AM 39.9686 -75.6031 227° Southwest 424 488 19,000 -610 Level New York Center
Fri 09:57:17 AM 39.8883 -75.7300 231° Southwest 424 488 17,800 -1,426 Descending New York Center
Fri 09:58:19 AM 39.8317 -75.8367 235° Southwest 417 480 16,100 -1,735 Descending New York Center
Fri 10:00:48 AM 39.6833 -76.1333 237° Southwest 371 427 11,700 -1,647 Descending Potomac TRACON
Fri 10:01:54 AM 39.6000 -76.2167 218° Southwest 331 381 10,200 -1,571 Descending Potomac TRACON
Fri 10:02:54 AM 39.5333 -76.3000 224° Southwest 316 364 8,400 -1,736 Descending Potomac TRACON
Fri 10:03:55 AM 39.4667 -76.3667 218° Southwest 319 367 6,700 -1,722 Descending Potomac TRACON
Fri 10:04:49 AM 39.4000 -76.4167 210° Southwest 314 361 5,100 -1,409 Descending Potomac TRACON
Fri 10:05:50 AM 39.3167 -76.4333 189° South 300 345 4,000 -545 Descending Potomac TRACON
Fri 10:06:50 AM 39.2333 -76.4333 180° South 299 344 4,000  Level Potomac TRACON
Fri 10:07:50 AM 39.1500 -76.4333 180° South 300 345 4,000  Level Potomac TRACON
Fri 10:08:50 AM 39.0667 -76.4500 189° South 300 345 4,000  Level Potomac TRACON
Fri 10:09:56 AM 39.0000 -76.4167 159° South 251 289 4,000  Level Potomac TRACON
Fri 10:10:50 AM 38.9667 -76.4667 229° Southwest 205 236 4,000  Level Potomac TRACON
Fri 10:11:56 AM 39.0000 -76.5167 311° West 164 189 4,000 -300 Level Potomac TRACON
Fri 10:12:50 AM 39.0333 -76.5500 322° Northwest 165 190 3,400 -842 Descending Potomac TRACON
Fri 10:13:50 AM 39.0667 -76.5833 322° Northwest 161 185 2,400 -950 Descending Potomac TRACON
Fri 10:14:50 AM 39.1000 -76.6167 322° Northwest 156 180 1,500 -800 Descending Potomac TRACON
Fri 10:15:50 AM 39.1333 -76.6333 339° North 127 146 800 -700 Descending Potomac TRACON

Login

Don't have an account? Register now (free) for customized features, flight alerts, and more!